createdAt,value
2023-04-03T00:00:25.901Z,2.93
2023-04-03T00:05:43.726Z,3.23
2023-04-03T00:10:39.508Z,3.40
2023-04-03T00:15:32.091Z,2.47
2023-04-03T00:20:24.428Z,4.70
2023-04-03T00:25:16.544Z,5.80
2023-04-03T00:30:13.120Z,6.40
2023-04-03T00:35:06.705Z,5.20
2023-04-03T00:39:58.879Z,4.57
2023-04-03T00:44:53.584Z,3.97
2023-04-03T00:49:46.597Z,3.90
2023-04-03T00:54:39.429Z,5.43
2023-04-03T00:59:35.414Z,4.03
2023-04-03T01:04:34.302Z,2.57
2023-04-03T01:14:41.348Z,2.73
2023-04-03T01:19:35.222Z,2.63
2023-04-03T01:24:37.414Z,2.37
2023-04-03T01:29:32.222Z,2.43
2023-04-03T01:34:25.456Z,2.83
2023-04-03T01:39:18.462Z,4.97
2023-04-03T01:44:10.915Z,4.53
2023-04-03T01:49:03.740Z,3.63
2023-04-03T01:53:55.809Z,4.00
2023-04-03T01:58:47.958Z,5.13
2023-04-03T02:03:40.472Z,10.80
2023-04-03T02:08:32.741Z,2.37
2023-04-03T02:13:25.175Z,3.30
2023-04-03T02:18:18.096Z,4.47
2023-04-03T02:23:10.511Z,3.80
2023-04-03T02:28:02.506Z,3.70
2023-04-03T02:32:54.691Z,3.93
2023-04-03T02:37:47.057Z,3.60
2023-04-03T02:42:39.977Z,6.37
2023-04-03T02:47:32.380Z,3.90
2023-04-03T02:52:24.633Z,3.83
2023-04-03T02:57:20.743Z,4.77
2023-04-03T03:02:13.050Z,5.20
2023-04-03T03:07:05.564Z,3.47
2023-04-03T03:11:58.061Z,2.93
2023-04-03T03:16:50.616Z,2.93
2023-04-03T03:21:42.816Z,5.37
2023-04-03T03:26:35.020Z,3.23
2023-04-03T03:31:28.074Z,3.10
2023-04-03T03:36:20.160Z,1.80
2023-04-03T03:41:12.238Z,3.97
2023-04-03T03:46:06.813Z,4.53
2023-04-03T03:50:58.955Z,5.90
2023-04-03T03:55:56.807Z,3.53
2023-04-03T04:00:51.705Z,4.93
2023-04-03T04:05:44.945Z,5.43
2023-04-03T04:10:39.176Z,6.33
2023-04-03T04:15:34.030Z,4.97
2023-04-03T04:20:27.692Z,5.23
2023-04-03T04:25:19.776Z,5.70
2023-04-03T04:30:13.301Z,4.40
2023-04-03T04:35:06.766Z,9.90
2023-04-03T04:40:01.564Z,8.10
2023-04-03T04:44:54.710Z,9.43
2023-04-03T04:49:48.518Z,5.17
2023-04-03T04:54:41.279Z,5.07
2023-04-03T04:59:34.324Z,6.07
2023-04-03T05:04:27.222Z,9.73
2023-04-03T05:09:25.639Z,8.83
2023-04-03T05:14:18.861Z,9.90
2023-04-03T05:19:11.783Z,7.90
2023-04-03T05:24:06.609Z,11.60
2023-04-03T05:29:00.413Z,3.77
2023-04-03T05:33:52.923Z,3.80
2023-04-03T05:38:45.019Z,11.20
2023-04-03T05:43:40.043Z,9.13
2023-04-03T05:48:34.272Z,5.93
2023-04-03T05:53:30.634Z,4.10
2023-04-03T05:58:26.629Z,6.67
2023-04-03T06:03:19.669Z,9.33
2023-04-03T06:08:12.016Z,6.23
2023-04-03T06:13:04.152Z,4.17
2023-04-03T06:17:56.374Z,3.77
2023-04-03T06:22:48.656Z,7.87
2023-04-03T06:27:40.841Z,5.03
2023-04-03T06:32:33.085Z,6.00
2023-04-03T06:37:29.875Z,7.90
2023-04-03T06:42:22.321Z,4.80
2023-04-03T06:47:24.186Z,4.77
2023-04-03T06:52:16.373Z,5.17
2023-04-03T06:57:09.287Z,5.00
2023-04-03T07:02:01.668Z,6.17
2023-04-03T07:06:54.289Z,7.00
2023-04-03T07:11:47.061Z,5.43
2023-04-03T07:16:41.040Z,3.80
2023-04-03T07:21:35.614Z,2.77
2023-04-03T07:26:27.817Z,2.70
2023-04-03T07:31:20.223Z,13.40
2023-04-03T07:36:17.584Z,4.93
2023-04-03T07:41:16.478Z,5.73
2023-04-03T07:46:08.590Z,2.80
2023-04-03T07:51:02.717Z,7.97
2023-04-03T07:55:56.594Z,3.97
2023-04-03T08:00:49.030Z,4.90
2023-04-03T08:05:46.983Z,4.43
2023-04-03T08:10:39.362Z,2.47
2023-04-03T08:15:33.031Z,4.63
2023-04-03T08:20:25.910Z,2.87
2023-04-03T08:25:18.816Z,7.60
2023-04-03T08:30:11.826Z,2.80
2023-04-03T08:35:05.748Z,6.43
2023-04-03T08:39:57.794Z,10.93
2023-04-03T08:45:22.402Z,3.63
2023-04-03T08:50:19.506Z,3.37
2023-04-03T08:55:46.182Z,7.40
2023-04-03T09:00:56.963Z,3.97
2023-04-03T09:05:52.011Z,3.80
2023-04-03T09:10:44.388Z,2.13
2023-04-03T09:15:39.401Z,3.60
2023-04-03T09:20:43.316Z,4.47
2023-04-03T09:25:39.667Z,2.63
2023-04-03T09:30:31.731Z,2.20
2023-04-03T09:35:36.241Z,6.80
2023-04-03T09:40:41.544Z,6.50
2023-04-03T09:45:36.230Z,1.50
2023-04-03T09:50:28.948Z,3.43
2023-04-03T09:55:23.204Z,1.03
2023-04-03T10:00:26.349Z,8.77
2023-04-03T10:05:34.373Z,2.00
2023-04-03T10:10:27.219Z,2.60
2023-04-03T10:15:19.845Z,2.20
2023-04-03T10:20:33.551Z,1.87
2023-04-03T10:25:43.160Z,2.10
2023-04-03T10:30:38.510Z,0.83
2023-04-03T10:35:40.971Z,2.00
2023-04-03T10:40:53.095Z,1.07
2023-04-03T10:46:12.340Z,2.30
2023-04-03T10:51:29.033Z,3.13
2023-04-03T10:56:23.984Z,2.07
2023-04-03T11:01:22.814Z,1.50
2023-04-03T11:06:18.326Z,1.40
2023-04-03T11:11:16.185Z,11.40
2023-04-03T11:16:09.495Z,2.37
2023-04-03T11:21:15.514Z,1.23
2023-04-03T11:26:13.728Z,3.00
2023-04-03T11:31:32.010Z,2.57
2023-04-03T11:36:37.545Z,2.53
2023-04-03T11:41:33.301Z,3.90
2023-04-03T11:46:51.584Z,4.00
2023-04-03T11:51:45.004Z,3.47
2023-04-03T11:56:37.173Z,4.30
2023-04-03T12:01:47.747Z,5.23
2023-04-03T12:06:39.671Z,1.13
2023-04-03T12:11:33.307Z,3.00
2023-04-03T12:16:37.300Z,3.57
2023-04-03T12:21:32.692Z,3.43
2023-04-03T12:26:38.413Z,4.33
2023-04-03T12:31:45.384Z,3.17
2023-04-03T12:36:59.604Z,2.47
2023-04-03T12:42:21.824Z,1.53
2023-04-03T12:47:39.292Z,2.80
2023-04-03T12:52:41.218Z,1.77
2023-04-03T12:57:33.847Z,3.50
2023-04-03T13:02:29.383Z,2.97
2023-04-03T13:07:26.574Z,1.80
2023-04-03T13:12:19.013Z,1.43
2023-04-03T13:17:16.412Z,2.07
2023-04-03T13:22:44.350Z,2.57
2023-04-03T13:27:36.911Z,1.00
2023-04-03T13:32:30.965Z,1.83
2023-04-03T13:37:54.294Z,2.27
2023-04-03T13:42:47.157Z,1.63
2023-04-03T13:47:42.794Z,2.10
2023-04-03T13:52:43.024Z,4.80
2023-04-03T13:57:35.354Z,3.47
2023-04-03T14:02:34.202Z,4.03
2023-04-03T14:07:26.923Z,1.90
2023-04-03T14:12:32.649Z,2.30
2023-04-03T14:17:27.552Z,33.43
2023-04-03T14:22:33.565Z,18.77
2023-04-03T14:27:29.692Z,17.20
2023-04-03T14:32:23.577Z,5.37
2023-04-03T14:37:19.710Z,9.57
2023-04-03T14:42:16.583Z,3.00
2023-04-03T14:47:29.986Z,3.20
2023-04-03T14:52:30.000Z,10.37
2023-04-03T14:57:26.062Z,2.73
2023-04-03T15:02:29.205Z,3.70
2023-04-03T15:07:22.023Z,7.60
2023-04-03T15:17:20.385Z,7.53
2023-04-03T15:22:20.573Z,3.90
2023-04-03T15:27:14.328Z,1.77
2023-04-03T15:32:06.734Z,6.77
2023-04-03T15:36:58.948Z,3.37
2023-04-03T15:41:52.977Z,5.90
2023-04-03T15:46:46.654Z,5.07
2023-04-03T15:51:38.731Z,2.40
2023-04-03T15:56:31.012Z,1.80
2023-04-03T16:01:23.477Z,2.87
2023-04-03T16:06:17.016Z,3.33
2023-04-03T16:11:09.675Z,6.83
2023-04-03T16:16:02.871Z,1.43
2023-04-03T16:20:55.736Z,3.87
2023-04-03T16:25:48.352Z,6.60
2023-04-03T16:30:42.273Z,10.97
2023-04-03T16:35:34.392Z,3.23
2023-04-03T16:40:26.450Z,2.17
2023-04-03T16:45:18.631Z,7.40
2023-04-03T16:50:11.645Z,6.73
2023-04-03T16:55:04.190Z,3.57
2023-04-03T16:59:56.410Z,5.40
2023-04-03T17:04:50.099Z,1.67
2023-04-03T17:09:43.501Z,7.07
2023-04-03T17:14:35.803Z,9.87
2023-04-03T17:19:29.134Z,5.47
2023-04-03T17:24:21.212Z,4.70
2023-04-03T17:29:13.295Z,5.57
2023-04-03T17:34:05.849Z,4.47
2023-04-03T17:38:57.902Z,2.57
2023-04-03T17:43:50.697Z,3.87
2023-04-03T17:48:42.924Z,5.67
2023-04-03T17:53:35.139Z,6.10
2023-04-03T17:58:27.677Z,4.93
2023-04-03T18:03:19.792Z,4.53
2023-04-03T18:08:11.933Z,6.33
2023-04-03T18:13:07.326Z,30.67
2023-04-03T18:17:59.450Z,84.83
2023-04-03T18:22:52.790Z,83.60
2023-04-03T18:27:47.286Z,32.43
2023-04-03T18:32:39.743Z,19.27
2023-04-03T18:37:31.937Z,12.77
2023-04-03T18:42:26.204Z,9.90
2023-04-03T18:47:18.354Z,10.37
2023-04-03T18:52:11.964Z,5.90
2023-04-03T18:57:04.751Z,6.40
2023-04-03T19:01:57.299Z,6.53
2023-04-03T19:06:49.527Z,4.07
2023-04-03T19:11:41.574Z,5.83
2023-04-03T19:16:34.102Z,5.43
2023-04-03T19:21:26.337Z,7.53
2023-04-03T19:26:18.783Z,6.23
2023-04-03T19:31:16.732Z,5.93
2023-04-03T19:36:10.452Z,2.77
2023-04-03T19:41:08.971Z,5.83
2023-04-03T19:46:01.524Z,4.83
2023-04-03T19:50:53.624Z,5.07
2023-04-03T19:55:49.416Z,5.23
2023-04-03T20:00:41.804Z,4.30
2023-04-03T20:05:34.034Z,3.40
2023-04-03T20:10:26.510Z,3.77
2023-04-03T20:15:19.052Z,3.60
2023-04-03T20:20:11.326Z,6.23
2023-04-03T20:25:09.374Z,3.50
2023-04-03T20:30:09.088Z,2.20
2023-04-03T20:35:03.887Z,3.27
2023-04-03T20:39:57.871Z,2.73
2023-04-03T20:44:49.993Z,2.80
2023-04-03T20:49:45.145Z,1.63
2023-04-03T20:54:37.716Z,5.10
2023-04-03T20:59:31.976Z,2.80
2023-04-03T21:04:42.300Z,2.70
2023-04-03T21:10:13.684Z,4.80
2023-04-03T21:15:45.212Z,3.57
2023-04-03T21:20:37.331Z,4.30
2023-04-03T21:25:29.747Z,3.23
2023-04-03T21:30:22.799Z,3.47
2023-04-03T21:35:15.995Z,3.80
2023-04-03T21:40:08.462Z,2.27
2023-04-03T21:45:00.809Z,4.57
2023-04-03T21:49:52.864Z,5.23
2023-04-03T21:54:45.052Z,2.97
2023-04-03T21:59:38.395Z,4.90
2023-04-03T22:04:30.547Z,5.33
2023-04-03T22:09:22.808Z,4.03
2023-04-03T22:14:14.969Z,3.73
2023-04-03T22:19:07.285Z,4.00
2023-04-03T22:23:59.535Z,3.37
2023-04-03T22:28:51.615Z,3.33
2023-04-03T22:33:45.559Z,3.27
2023-04-03T22:38:39.135Z,3.53
2023-04-03T22:43:33.245Z,5.23
2023-04-03T22:48:25.240Z,5.03
2023-04-03T22:53:18.251Z,2.70
2023-04-03T22:58:10.234Z,3.37
2023-04-03T23:03:02.615Z,6.77
2023-04-03T23:07:54.815Z,3.10
2023-04-03T23:12:46.934Z,4.83
2023-04-03T23:17:39.365Z,3.73
2023-04-03T23:22:31.934Z,2.00
2023-04-03T23:27:24.241Z,2.73
2023-04-03T23:32:16.740Z,3.73
2023-04-03T23:37:12.840Z,4.03
2023-04-03T23:42:09.329Z,2.47
2023-04-03T23:47:01.450Z,2.33
2023-04-03T23:51:54.212Z,4.00
2023-04-03T23:56:46.301Z,4.73
